Time;durP1;ratioP1;P1;durP2;ratioP2;P2;SDS_P1;SDS_P2;PMS_P1;PMS_P2;Temp;Humidity;BMP_temperature;BMP_pressure;BME280_temperature;BME280_humidity;BME280_pressure;Samples;Min_cycle;Max_cycle;Signal;HPM_P1;HPM_P2
2023/07/01 00:03:23;;;;;;;2.50;1.67;;;;;;;14.17;53.89;99405.69;10386061;28;20049;-58
2023/07/01 00:08:25;;;;;;;3.33;1.60;;;;;;;14.19;54.33;99402.94;10374399;28;20068;-58
2023/07/01 00:13:28;;;;;;;2.58;1.60;;;;;;;14.16;54.42;99393.53;10389847;28;20139;-58
2023/07/01 00:18:30;;;;;;;2.95;1.70;;;;;;;14.23;54.54;99385.94;10388877;28;20076;-58
2023/07/01 00:23:33;;;;;;;2.92;1.73;;;;;;;14.20;54.72;99380.94;10389305;28;20107;-57
2023/07/01 00:28:35;;;;;;;2.15;1.50;;;;;;;14.20;54.98;99383.56;10389354;28;20148;-57
2023/07/01 00:33:37;;;;;;;2.10;1.48;;;;;;;14.30;54.95;99382.69;10387717;28;20052;-58
2023/07/01 00:38:39;;;;;;;3.42;1.90;;;;;;;14.35;54.85;99379.69;10389164;28;20370;-58
2023/07/01 00:43:41;;;;;;;3.50;1.80;;;;;;;14.36;54.72;99369.00;10387619;28;20532;-58
2023/07/01 00:48:43;;;;;;;4.90;1.60;;;;;;;14.51;54.39;99356.41;10389199;28;20037;-58
2023/07/01 00:53:45;;;;;;;2.95;1.70;;;;;;;14.45;54.34;99365.59;10387238;28;20107;-58
2023/07/01 00:58:47;;;;;;;2.70;1.70;;;;;;;14.45;54.48;99349.00;10405161;28;20050;-58
2023/07/01 01:04:08;;;;;;;2.42;1.60;;;;;;;14.48;55.05;99341.66;10372064;28;20053;-58
2023/07/01 01:09:26;;;;;;;3.22;2.05;;;;;;;14.27;55.77;99340.84;10388144;28;20573;-58
2023/07/01 01:14:29;;;;;;;2.50;1.70;;;;;;;14.35;54.85;99343.66;10384949;28;20434;-58
2023/07/01 01:19:44;;;;;;;2.47;1.58;;;;;;;14.49;55.38;99335.47;10384377;28;20056;-58
2023/07/01 01:24:54;;;;;;;2.60;1.70;;;;;;;14.34;55.34;99331.47;10385064;28;20045;-58
2023/07/01 01:29:56;;;;;;;2.45;1.70;;;;;;;14.10;55.28;99328.28;10386321;28;20943;-58
2023/07/01 01:34:58;;;;;;;2.05;1.40;;;;;;;14.19;55.62;99327.50;10387149;28;20049;-58
2023/07/01 01:40:10;;;;;;;2.05;1.40;;;;;;;14.41;54.96;99316.03;10384813;28;21026;-58
2023/07/01 01:45:16;;;;;;;2.80;1.70;;;;;;;14.52;54.73;99315.94;10384422;28;20053;-58
2023/07/01 01:50:21;;;;;;;2.60;1.67;;;;;;;14.49;54.66;99318.88;10385692;28;20050;-58
2023/07/01 01:55:23;;;;;;;3.38;1.45;;;;;;;14.40;54.93;99309.06;10385464;28;20073;-58
2023/07/01 02:00:25;;;;;;;2.63;1.58;;;;;;;14.52;54.90;99303.63;10361728;28;20452;-58
2023/07/01 02:05:28;;;;;;;2.38;1.63;;;;;;;14.58;54.86;99297.00;10390248;28;20057;-58
2023/07/01 02:10:31;;;;;;;2.72;1.90;;;;;;;14.60;54.89;99289.81;10390991;28;20042;-57
2023/07/01 02:15:33;;;;;;;2.70;1.67;;;;;;;14.58;54.80;99282.06;10374982;28;20072;-58
2023/07/01 02:20:35;;;;;;;2.28;1.60;;;;;;;14.59;55.06;99285.53;10390237;28;20049;-58
2023/07/01 02:25:37;;;;;;;2.75;1.90;;;;;;;14.68;54.77;99279.44;10390498;28;20060;-58
2023/07/01 02:30:40;;;;;;;2.67;1.73;;;;;;;14.67;54.87;99272.53;10390886;28;20065;-58
2023/07/01 02:35:44;;;;;;;2.85;1.63;;;;;;;14.72;54.65;99272.13;10389716;28;20049;-58
2023/07/01 02:40:46;;;;;;;2.60;1.60;;;;;;;14.73;54.81;99260.63;10375316;28;21090;-58
2023/07/01 02:45:49;;;;;;;2.85;1.70;;;;;;;14.77;54.69;99267.28;10390964;28;20497;-58
2023/07/01 02:50:51;;;;;;;4.20;1.85;;;;;;;14.80;54.66;99265.22;10390581;28;20497;-59
2023/07/01 02:55:53;;;;;;;3.92;1.80;;;;;;;14.85;54.77;99265.66;10390416;28;20055;-58
2023/07/01 03:00:55;;;;;;;3.80;1.75;;;;;;;14.88;54.84;99267.22;10388659;28;20122;-58
2023/07/01 03:05:57;;;;;;;2.25;1.58;;;;;;;14.91;55.05;99257.22;10385947;28;20072;-58
2023/07/01 03:10:59;;;;;;;3.35;1.90;;;;;;;14.91;54.98;99257.22;10381754;28;20080;-58
2023/07/01 03:16:01;;;;;;;3.22;1.83;;;;;;;14.88;54.99;99251.41;10382528;28;20977;-58
2023/07/01 03:21:04;;;;;;;2.78;1.80;;;;;;;14.89;55.17;99253.06;10382010;28;20083;-58
2023/07/01 03:26:06;;;;;;;4.28;1.90;;;;;;;14.89;55.02;99245.16;10381887;28;20050;-58
2023/07/01 03:31:08;;;;;;;2.50;1.63;;;;;;;14.93;54.88;99243.91;10382897;28;20553;-58
2023/07/01 03:36:10;;;;;;;2.92;1.70;;;;;;;14.89;55.06;99234.63;10384231;28;20053;-58
2023/07/01 03:41:12;;;;;;;3.28;1.63;;;;;;;14.95;55.24;99232.28;10390083;28;20041;-58
2023/07/01 03:46:14;;;;;;;2.03;1.52;;;;;;;14.99;55.05;99235.47;10384933;28;20144;-58
2023/07/01 03:51:16;;;;;;;4.43;1.98;;;;;;;15.00;55.18;99229.25;10390812;28;20731;-58
2023/07/01 03:56:18;;;;;;;2.72;1.80;;;;;;;15.03;55.42;99221.91;10387342;28;20116;-58
2023/07/01 04:01:22;;;;;;;4.15;1.85;;;;;;;15.18;55.11;99214.44;10390675;28;20046;-58
2023/07/01 04:06:27;;;;;;;2.90;1.75;;;;;;;15.31;54.80;99207.91;10388639;28;20172;-58
2023/07/01 04:11:30;;;;;;;4.40;1.55;;;;;;;15.47;54.71;99206.53;10388288;28;20116;-58
2023/07/01 04:16:33;;;;;;;2.75;1.90;;;;;;;15.36;54.61;99208.34;10388214;28;20064;-58
2023/07/01 04:21:35;;;;;;;3.55;1.77;;;;;;;15.56;54.36;99201.28;10389442;28;20482;-58
2023/07/01 04:26:37;;;;;;;2.88;1.70;;;;;;;15.87;53.52;99196.66;10388098;28;20053;-58
2023/07/01 04:31:39;;;;;;;2.45;1.65;;;;;;;15.64;53.76;99188.22;10389620;28;20122;-58
2023/07/01 04:36:41;;;;;;;2.63;1.83;;;;;;;15.56;53.79;99190.75;10388119;28;20111;-58
2023/07/01 04:41:43;;;;;;;3.30;1.70;;;;;;;15.43;53.89;99188.34;10385668;28;20817;-58
2023/07/01 04:46:45;;;;;;;3.55;1.98;;;;;;;15.51;53.65;99185.03;10388321;28;20045;-58
2023/07/01 04:51:47;;;;;;;2.42;1.70;;;;;;;15.66;53.53;99185.44;10389379;28;20045;-58
2023/07/01 04:56:49;;;;;;;2.67;1.85;;;;;;;15.85;53.38;99182.78;10386984;28;20115;-58
2023/07/01 05:01:51;;;;;;;2.83;1.70;;;;;;;16.06;52.85;99186.06;10386702;28;20041;-58
2023/07/01 05:06:53;;;;;;;4.50;2.05;;;;;;;16.61;52.09;99179.84;10384824;28;20123;-58
2023/07/01 05:11:55;;;;;;;2.40;1.70;;;;;;;17.01;51.55;99160.94;10371599;28;20059;-58
2023/07/01 05:16:57;;;;;;;2.67;1.60;;;;;;;18.29;49.92;99145.19;10387311;28;20064;-58
2023/07/01 05:21:59;;;;;;;2.55;1.65;;;;;;;18.25;49.50;99158.91;10387732;28;20063;-59
2023/07/01 05:27:02;;;;;;;2.30;1.50;;;;;;;18.44;49.63;99142.78;10385677;28;20064;-58
2023/07/01 05:32:04;;;;;;;2.53;1.45;;;;;;;18.45;49.10;99147.06;10386666;28;20053;-58
2023/07/01 05:37:06;;;;;;;1.67;1.27;;;;;;;18.38;48.59;99138.94;10386230;28;20456;-58
2023/07/01 05:42:08;;;;;;;2.28;1.50;;;;;;;18.29;48.85;99139.06;10387326;28;20156;-58
2023/07/01 05:47:10;;;;;;;2.70;1.70;;;;;;;18.27;49.30;99141.03;10385929;28;20413;-58
2023/07/01 05:52:12;;;;;;;2.47;1.60;;;;;;;18.22;49.48;99138.06;10385218;28;20049;-58
2023/07/01 05:57:14;;;;;;;2.45;1.50;;;;;;;18.08;49.01;99136.78;10383888;28;20045;-59
2023/07/01 06:02:16;;;;;;;2.42;1.65;;;;;;;18.09;49.01;99133.19;10385365;28;20080;-58
2023/07/01 06:07:18;;;;;;;2.28;1.50;;;;;;;18.22;48.89;99124.84;10385230;28;20425;-59
2023/07/01 06:12:20;;;;;;;3.10;1.65;;;;;;;18.59;48.78;99122.63;10380120;28;20052;-58
2023/07/01 06:17:22;;;;;;;1.83;1.35;;;;;;;19.11;47.41;99118.78;10377509;28;20531;-58
2023/07/01 06:22:24;;;;;;;7.30;1.63;;;;;;;20.56;45.30;99107.78;10379868;28;20053;-58
2023/07/01 06:27:26;;;;;;;3.75;1.40;;;;;;;20.84;44.51;99098.34;10379837;28;20859;-59
2023/07/01 06:32:29;;;;;;;1.85;1.48;;;;;;;20.94;44.39;99100.75;10364987;28;20503;-59
2023/07/01 06:37:31;;;;;;;1.90;1.25;;;;;;;20.64;44.37;99097.13;10380143;28;20111;-58
2023/07/01 06:42:35;;;;;;;2.22;1.27;;;;;;;20.60;44.32;99087.84;10384380;28;20128;-58
2023/07/01 06:47:37;;;;;;;2.13;1.20;;;;;;;21.08;43.26;99084.03;10383295;28;20053;-59
2023/07/01 06:52:39;;;;;;;1.55;1.00;;;;;;;21.22;41.94;99087.72;10382106;28;20045;-59
2023/07/01 06:57:42;;;;;;;2.25;1.40;;;;;;;21.48;41.75;99082.84;10383897;28;20124;-59
2023/07/01 07:02:44;;;;;;;1.50;1.02;;;;;;;21.64;41.40;99082.72;10398389;28;20452;-59
2023/07/01 07:07:46;;;;;;;5.55;1.10;;;;;;;21.89;40.25;99070.78;10399069;28;20517;-58
2023/07/01 07:12:48;;;;;;;1.88;1.23;;;;;;;22.57;39.35;99068.59;10387776;28;20041;-59
2023/07/01 07:17:50;;;;;;;3.55;1.20;;;;;;;23.11;38.27;99062.75;10392140;28;20071;-59
2023/07/01 07:22:52;;;;;;;1.65;1.05;;;;;;;23.00;37.82;99065.94;10391387;28;20128;-59
2023/07/01 07:27:54;;;;;;;1.58;0.95;;;;;;;22.29;38.06;99072.16;10392711;28;20046;-59
2023/07/01 07:32:56;;;;;;;2.17;1.10;;;;;;;22.08;38.49;99064.94;10392360;28;20045;-59
2023/07/01 07:37:58;;;;;;;1.65;1.08;;;;;;;22.62;38.22;99055.50;10390146;28;20091;-59
2023/07/01 07:43:08;;;;;;;1.33;0.82;;;;;;;22.73;36.80;99064.00;10391152;28;20045;-59
2023/07/01 07:48:10;;;;;;;2.13;1.00;;;;;;;22.43;38.00;99065.97;10393312;28;20050;-59
2023/07/01 07:53:13;;;;;;;1.55;1.00;;;;;;;22.27;38.39;99069.66;10392339;28;20057;-59
2023/07/01 07:58:15;;;;;;;1.55;1.00;;;;;;;22.44;38.47;99063.09;10385543;28;20530;-59
2023/07/01 08:03:17;;;;;;;1.63;1.02;;;;;;;22.58;38.02;99056.91;10382350;28;20045;-59
2023/07/01 08:08:20;;;;;;;1.98;1.17;;;;;;;23.06;38.01;99044.69;10386734;28;20064;-59
2023/07/01 08:13:22;;;;;;;1.52;1.00;;;;;;;23.14;37.35;99044.53;10389316;28;20056;-59
2023/07/01 08:18:24;;;;;;;1.85;1.10;;;;;;;23.21;38.04;99050.75;10381126;28;20045;-59
2023/07/01 08:23:26;;;;;;;2.58;1.00;;;;;;;22.88;38.17;99040.81;10370688;28;20056;-59
2023/07/01 08:28:31;;;;;;;1.77;1.00;;;;;;;22.98;38.50;99038.66;10381669;28;20041;-59
2023/07/01 08:33:34;;;;;;;1.83;1.15;;;;;;;22.94;39.15;99045.38;10382839;28;20065;-58
2023/07/01 08:38:36;;;;;;;1.65;1.00;;;;;;;22.44;40.04;99041.78;10380710;28;20774;-59
2023/07/01 08:43:38;;;;;;;2.03;1.10;;;;;;;22.34;40.21;99040.44;10372251;28;20049;-59
2023/07/01 08:48:44;;;;;;;1.50;0.90;;;;;;;22.42;40.38;99037.66;10383945;28;20072;-59
2023/07/01 08:53:47;;;;;;;1.42;0.90;;;;;;;22.53;40.44;99046.00;10386588;28;20045;-59
2023/07/01 08:58:49;;;;;;;1.02;0.93;;;;;;;22.00;41.66;99043.69;10387153;28;20522;-59
2023/07/01 09:03:51;;;;;;;3.17;1.10;;;;;;;21.59;42.76;99043.34;10387849;28;20041;-60
2023/07/01 09:08:54;;;;;;;2.08;1.10;;;;;;;21.50;43.30;99040.94;10374667;28;20136;-59
2023/07/01 09:13:56;;;;;;;2.28;0.90;;;;;;;21.29;43.56;99038.97;10368651;28;20107;-59
2023/07/01 09:19:06;;;;;;;1.00;0.82;;;;;;;21.48;43.59;99032.31;10387267;28;20076;-59
2023/07/01 09:24:10;;;;;;;1.67;0.90;;;;;;;21.57;43.31;99033.88;10386058;28;20045;-59
2023/07/01 09:29:15;;;;;;;1.20;0.77;;;;;;;21.31;43.48;99030.81;10386135;28;20045;-59
2023/07/01 09:34:18;;;;;;;1.13;0.90;;;;;;;21.36;43.72;99025.78;10386189;28;20449;-59
2023/07/01 09:39:32;;;;;;;1.42;0.90;;;;;;;21.46;44.28;99021.03;10385546;28;20457;-59
2023/07/01 09:44:35;;;;;;;1.05;0.70;;;;;;;21.48;44.02;99016.34;10387455;28;20045;-59
2023/07/01 09:49:42;;;;;;;1.60;0.90;;;;;;;21.21;45.26;99027.59;10383104;28;20471;-59
2023/07/01 09:54:44;;;;;;;0.98;0.47;;;;;;;21.15;45.49;99023.00;10385765;28;20100;-59
2023/07/01 09:59:47;;;;;;;1.02;0.70;;;;;;;21.37;46.64;99028.28;10385885;28;20405;-59
2023/07/01 10:04:50;;;;;;;1.80;0.80;;;;;;;21.49;46.83;99033.97;10383508;28;20077;-59
2023/07/01 10:09:53;;;;;;;1.63;0.98;;;;;;;21.44;48.04;99025.69;10385030;28;20056;-59
2023/07/01 10:14:57;;;;;;;1.48;1.10;;;;;;;21.60;48.33;99018.38;10384060;28;20081;-59
2023/07/01 10:20:29;;;;;;;1.17;1.00;;;;;;;21.75;48.89;99015.72;10383321;28;20132;-59
2023/07/01 10:25:35;;;;;;;1.15;1.00;;;;;;;21.96;48.05;99026.44;10384123;28;20061;-59
2023/07/01 10:30:47;;;;;;;1.17;0.90;;;;;;;21.33;47.93;99020.84;10381850;28;20057;-60
2023/07/01 10:36:09;;;;;;;1.83;0.85;;;;;;;21.06;49.86;99028.38;10384378;28;20401;-59
2023/07/01 10:41:11;;;;;;;1.80;1.05;;;;;;;21.27;48.79;99025.03;10387336;28;20502;-59
2023/07/01 10:46:24;;;;;;;0.93;0.80;;;;;;;21.16;49.92;99025.47;10384964;28;20050;-59
2023/07/01 10:51:26;;;;;;;2.40;1.40;;;;;;;20.91;48.83;99024.84;10385485;28;20053;-59
2023/07/01 10:56:35;;;;;;;2.67;1.20;;;;;;;20.57;49.84;99024.44;10385301;28;20053;-59
2023/07/01 11:01:41;;;;;;;2.20;1.10;;;;;;;20.41;49.90;99029.84;10384795;28;20045;-59
2023/07/01 11:06:53;;;;;;;1.33;0.90;;;;;;;20.49;49.77;99026.31;10386041;28;20045;-59
2023/07/01 11:11:56;;;;;;;1.30;1.00;;;;;;;20.48;49.36;99028.13;10385872;28;20132;-59
2023/07/01 11:17:08;;;;;;;2.70;1.00;;;;;;;20.66;49.29;99020.72;10382959;28;20057;-61
2023/07/01 11:22:14;;;;;;;1.90;1.10;;;;;;;20.51;49.44;99017.16;10379992;28;20053;-60
2023/07/01 11:27:17;;;;;;;1.60;1.15;;;;;;;20.48;49.46;99012.19;10382631;28;20050;-61
2023/07/01 11:32:19;;;;;;;1.70;1.10;;;;;;;20.44;49.62;99005.56;10382458;28;20568;-61
2023/07/01 11:37:24;;;;;;;2.03;1.00;;;;;;;20.47;49.66;99010.56;10383346;28;20048;-60
2023/07/01 11:42:27;;;;;;;2.17;1.10;;;;;;;20.55;49.68;99007.84;10367357;28;20516;-60
2023/07/01 11:47:29;;;;;;;1.83;1.13;;;;;;;20.87;49.11;98991.66;10381916;28;20581;-60
2023/07/01 11:52:31;;;;;;;2.80;1.52;;;;;;;21.49;48.31;98992.25;10366567;28;20070;-60
2023/07/01 11:57:33;;;;;;;1.30;1.02;;;;;;;21.53;48.39;98993.53;10382153;28;20139;-60
2023/07/01 12:02:35;;;;;;;1.85;1.20;;;;;;;21.20;48.52;98996.66;10383616;28;20037;-60
2023/07/01 12:07:54;;;;;;;2.72;1.30;;;;;;;21.08;49.25;98994.47;10386408;28;20452;-60
2023/07/01 12:12:56;;;;;;;2.75;1.40;;;;;;;21.12;49.48;98997.59;10385838;28;20099;-60
2023/07/01 12:18:22;;;;;;;1.70;1.30;;;;;;;20.96;50.71;98992.41;10383897;28;20061;-60
2023/07/01 12:23:24;;;;;;;2.15;1.25;;;;;;;20.87;50.09;98991.66;10387948;28;20132;-60
2023/07/01 12:28:27;;;;;;;2.13;1.30;;;;;;;21.01;50.88;98982.88;10389019;28;20057;-60
2023/07/01 12:33:29;;;;;;;2.70;1.30;;;;;;;21.34;50.99;98990.56;10389022;28;20065;-60
2023/07/01 12:38:32;;;;;;;2.40;1.20;;;;;;;21.28;51.43;98986.78;10386042;28;20053;-61
2023/07/01 12:43:34;;;;;;;3.13;1.50;;;;;;;21.28;51.85;98999.25;10385859;28;20127;-60
2023/07/01 12:48:36;;;;;;;2.80;1.40;;;;;;;21.18;52.20;98996.03;10382599;28;20420;-60
2023/07/01 12:53:39;;;;;;;3.92;1.50;;;;;;;21.65;51.91;98988.56;10384698;28;20041;-61
2023/07/01 12:58:41;;;;;;;3.20;1.70;;;;;;;21.96;51.70;98978.50;10382403;28;20832;-60
2023/07/01 13:03:44;;;;;;;2.55;1.60;;;;;;;21.79;52.07;98980.56;10384958;28;20497;-60
2023/07/01 13:08:47;;;;;;;1.90;1.30;;;;;;;21.85;52.04;98981.66;10383416;28;20037;-61
2023/07/01 13:13:51;;;;;;;2.70;1.50;;;;;;;21.81;52.05;98975.03;10385736;28;20115;-60
2023/07/01 13:18:55;;;;;;;2.33;1.40;;;;;;;21.93;51.48;98973.56;10383157;28;20076;-60
2023/07/01 13:23:57;;;;;;;2.70;1.65;;;;;;;21.67;51.88;98963.41;10378926;28;20211;-60
2023/07/01 13:28:59;;;;;;;2.35;1.40;;;;;;;21.61;51.65;98963.31;10382733;28;20703;-60
2023/07/01 13:34:06;;;;;;;1.75;1.20;;;;;;;21.48;51.80;98965.78;10383944;28;20493;-60
2023/07/01 13:39:35;;;;;;;1.70;1.20;;;;;;;21.50;51.70;98972.59;10386173;28;20791;-60
2023/07/01 13:44:39;;;;;;;1.85;1.13;;;;;;;21.48;51.48;98963.13;10381658;28;20062;-60
2023/07/01 13:49:41;;;;;;;1.25;0.90;;;;;;;21.76;50.88;98961.47;10387087;28;20054;-61
2023/07/01 13:54:43;;;;;;;1.08;0.90;;;;;;;21.80;50.81;98954.78;10386188;28;20049;-61
2023/07/01 13:59:45;;;;;;;2.22;1.17;;;;;;;22.07;50.35;98948.75;10385234;28;20044;-62
2023/07/01 14:04:47;;;;;;;1.75;1.10;;;;;;;21.90;51.55;98948.13;10388367;28;20504;-62
2023/07/01 14:09:49;;;;;;;1.42;1.00;;;;;;;21.76;51.55;98948.19;10384397;28;20505;-62
2023/07/01 14:14:52;;;;;;;1.83;1.00;;;;;;;21.66;52.25;98944.97;10381983;28;20057;-61
2023/07/01 14:19:58;;;;;;;1.35;1.00;;;;;;;21.50;53.51;98939.84;10384432;28;20049;-62
2023/07/01 14:25:00;;;;;;;1.17;0.93;;;;;;;21.38;53.43;98938.66;10383157;28;20053;-62
2023/07/01 14:30:11;;;;;;;0.90;0.90;;;;;;;21.61;53.94;98936.72;10382061;28;20444;-62
2023/07/01 14:35:20;;;;;;;1.20;1.00;;;;;;;21.63;54.37;98940.84;10384219;28;20144;-62
2023/07/01 14:40:22;;;;;;;1.25;0.95;;;;;;;21.81;54.10;98933.28;10384933;28;20561;-62
2023/07/01 14:45:27;;;;;;;1.83;1.00;;;;;;;21.89;54.91;98935.84;10384603;28;20133;-62
2023/07/01 14:50:29;;;;;;;1.10;1.00;;;;;;;21.92;54.62;98937.31;10385386;28;20488;-62
2023/07/01 14:55:31;;;;;;;1.00;0.90;;;;;;;22.05;54.66;98934.81;10384447;28;20041;-62
2023/07/01 15:00:33;;;;;;;1.23;1.00;;;;;;;22.02;54.50;98929.84;10386520;28;20148;-62
2023/07/01 15:05:38;;;;;;;1.20;0.95;;;;;;;22.04;56.13;98925.19;10383539;28;20472;-62
2023/07/01 15:10:40;;;;;;;1.13;0.98;;;;;;;22.10;55.46;98924.44;10384980;28;20107;-62
2023/07/01 15:15:42;;;;;;;1.63;1.10;;;;;;;22.37;54.83;98920.19;10384187;28;20054;-61
2023/07/01 15:20:45;;;;;;;2.05;1.30;;;;;;;22.50;54.69;98897.13;10383978;28;20044;-62
2023/07/01 15:25:47;;;;;;;2.78;1.50;;;;;;;22.86;54.03;98897.00;10382406;28;20053;-62
2023/07/01 15:30:49;;;;;;;3.28;1.83;;;;;;;23.01;53.85;98888.91;10382658;28;20053;-62
2023/07/01 15:35:51;;;;;;;1.67;1.20;;;;;;;22.92;53.59;98892.75;10391966;28;20054;-62
2023/07/01 15:40:53;;;;;;;1.30;1.02;;;;;;;22.99;53.46;98893.63;10390235;28;20565;-61
2023/07/01 15:45:55;;;;;;;1.45;1.17;;;;;;;23.21;52.74;98895.19;10391192;28;20053;-61
2023/07/01 15:50:57;;;;;;;1.15;1.00;;;;;;;23.05;53.16;98884.84;10392296;28;20048;-61
2023/07/01 15:55:59;;;;;;;2.58;1.40;;;;;;;23.07;53.07;98877.47;10392758;28;20085;-61
2023/07/01 16:01:02;;;;;;;1.65;1.13;;;;;;;22.92;52.76;98866.09;10390790;28;20131;-61
2023/07/01 16:06:04;;;;;;;1.60;1.08;;;;;;;22.57;53.24;98874.03;10384893;28;20131;-61
2023/07/01 16:11:27;;;;;;;2.55;1.00;;;;;;;22.45;54.42;98870.22;10391244;28;20541;-61
2023/07/01 16:16:30;;;;;;;1.08;0.98;;;;;;;22.46;53.55;98874.56;10385462;28;21075;-62
2023/07/01 16:21:46;;;;;;;1.00;0.90;;;;;;;22.13;53.92;98867.31;10387336;28;20045;-61
2023/07/01 16:26:49;;;;;;;1.33;1.10;;;;;;;22.27;53.95;98866.41;10381431;28;20132;-61
2023/07/01 16:31:51;;;;;;;1.75;1.15;;;;;;;22.15;54.48;98866.06;10383544;28;20050;-61
2023/07/01 16:36:53;;;;;;;1.45;1.20;;;;;;;22.00;54.79;98877.78;10383327;28;20133;-61
2023/07/01 16:42:00;;;;;;;2.30;1.30;;;;;;;21.67;55.78;98896.06;10372869;28;20037;-61
2023/07/01 16:47:02;;;;;;;4.45;1.27;;;;;;;21.19;57.13;98920.56;10388677;28;20211;-61
2023/07/01 16:52:16;;;;;;;1.95;1.42;;;;;;;20.80;57.74;98924.31;10389750;28;20125;-62
2023/07/01 16:57:19;;;;;;;2.20;1.50;;;;;;;20.67;58.79;98910.78;10385877;28;20512;-62
2023/07/01 17:02:31;;;;;;;6.13;4.25;;;;;;;20.45;61.08;98906.31;10386229;28;20732;-61
2023/07/01 17:07:35;;;;;;;2.95;1.95;;;;;;;20.52;60.17;98909.09;10386555;28;20100;-62
2023/07/01 17:12:37;;;;;;;2.60;1.70;;;;;;;20.68;59.71;98899.16;10388704;28;20050;-62
2023/07/01 17:17:41;;;;;;;2.80;1.67;;;;;;;20.86;60.19;98894.34;10388743;28;20528;-62
2023/07/01 17:22:44;;;;;;;3.88;2.28;;;;;;;20.82;59.87;98890.41;10389986;28;20103;-62
2023/07/01 17:27:46;;;;;;;1.58;1.05;;;;;;;20.74;60.47;98892.31;10386773;28;20176;-62
2023/07/01 17:32:48;;;;;;;6.45;4.97;;;;;;;20.67;60.82;98905.47;10387351;28;20073;-62
2023/07/01 17:37:50;;;;;;;3.10;1.90;;;;;;;20.59;60.69;98900.25;10386912;28;20045;-62
2023/07/01 17:42:52;;;;;;;3.13;2.08;;;;;;;20.59;60.80;98907.38;10388574;28;20061;-61
2023/07/01 17:47:55;;;;;;;1.20;1.10;;;;;;;20.53;60.99;98897.44;10386302;28;20140;-62
2023/07/01 17:52:57;;;;;;;1.88;1.15;;;;;;;20.48;60.97;98897.97;10387928;28;20045;-62
2023/07/01 17:57:59;;;;;;;1.55;1.40;;;;;;;20.45;61.03;98892.19;10386431;28;20049;-61
2023/07/01 18:03:02;;;;;;;1.10;1.00;;;;;;;20.32;61.44;98894.63;10384630;28;20988;-62
2023/07/01 18:08:04;;;;;;;3.38;2.10;;;;;;;20.31;61.28;98899.13;10385437;28;20069;-62
2023/07/01 18:13:06;;;;;;;2.03;1.45;;;;;;;20.12;61.64;98913.72;10380449;28;20125;-62
2023/07/01 18:18:08;;;;;;;2.65;1.77;;;;;;;19.98;62.35;98908.31;10376093;28;20056;-62
2023/07/01 18:23:11;;;;;;;2.55;1.55;;;;;;;19.94;62.35;98913.16;10384364;28;20047;-61
2023/07/01 18:28:13;;;;;;;1.58;1.30;;;;;;;19.84;63.59;98917.88;10380750;28;20045;-62
2023/07/01 18:33:15;;;;;;;3.03;2.10;;;;;;;19.72;62.96;98923.72;10379680;28;20091;-61
2023/07/01 18:38:17;;;;;;;2.97;1.40;;;;;;;19.75;62.92;98918.88;10383024;28;20254;-61
2023/07/01 18:43:19;;;;;;;1.10;1.00;;;;;;;19.62;63.33;98912.50;10379343;28;20053;-60
2023/07/01 18:48:21;;;;;;;2.90;1.45;;;;;;;19.76;63.01;98920.53;10369650;28;20045;-61
2023/07/01 18:53:23;;;;;;;1.48;0.95;;;;;;;19.62;63.53;98918.63;10377654;28;20160;-61
2023/07/01 18:58:25;;;;;;;0.93;0.82;;;;;;;19.62;63.57;98923.09;10379256;28;21250;-60
2023/07/01 19:03:27;;;;;;;2.55;1.30;;;;;;;19.59;63.53;98928.72;10381804;28;20052;-61
2023/07/01 19:08:30;;;;;;;1.10;0.90;;;;;;;19.65;63.54;98936.84;10379629;28;20064;-61
2023/07/01 19:13:32;;;;;;;1.40;0.88;;;;;;;19.69;63.32;98934.66;10379425;28;20274;-60
2023/07/01 19:18:33;;;;;;;1.10;0.80;;;;;;;19.68;63.23;98933.00;10383846;28;20068;-61
2023/07/01 19:23:36;;;;;;;1.10;0.88;;;;;;;19.62;63.32;98939.00;10384995;28;20041;-61
2023/07/01 19:28:38;;;;;;;1.40;0.70;;;;;;;19.34;63.68;98965.13;10383446;28;20045;-60
2023/07/01 19:33:41;;;;;;;1.00;0.82;;;;;;;19.33;64.05;98964.31;10384482;28;20100;-60
2023/07/01 19:38:43;;;;;;;1.02;0.80;;;;;;;19.48;63.86;98959.13;10385475;28;20077;-60
2023/07/01 19:43:46;;;;;;;0.70;0.70;;;;;;;19.51;63.79;98961.44;10381474;28;20494;-60
2023/07/01 19:48:48;;;;;;;0.75;0.70;;;;;;;19.47;63.90;98968.06;10381939;28;20049;-60
2023/07/01 19:53:50;;;;;;;0.88;0.88;;;;;;;19.43;63.95;98962.28;10384133;28;20045;-60
2023/07/01 19:58:52;;;;;;;1.00;0.77;;;;;;;19.37;64.14;98980.72;10383101;28;20053;-60
2023/07/01 20:03:55;;;;;;;1.45;1.02;;;;;;;19.24;64.43;98991.84;10381634;28;20136;-60
2023/07/01 20:08:57;;;;;;;1.27;0.73;;;;;;;19.08;64.87;99002.47;10382462;28;20556;-60
2023/07/01 20:13:59;;;;;;;1.40;0.90;;;;;;;18.94;64.95;99005.78;10378186;28;20045;-60
2023/07/01 20:19:01;;;;;;;1.15;0.80;;;;;;;18.91;64.71;99005.28;10378386;28;20135;-59
2023/07/01 20:24:03;;;;;;;4.80;1.30;;;;;;;18.86;65.05;99015.53;10390220;28;20533;-60
2023/07/01 20:29:05;;;;;;;3.83;1.00;;;;;;;18.87;64.62;99019.84;10387660;28;20064;-60
2023/07/01 20:34:07;;;;;;;1.90;1.15;;;;;;;18.91;64.91;99014.03;10388792;28;20049;-60
2023/07/01 20:39:10;;;;;;;1.50;1.10;;;;;;;18.95;64.62;99025.97;10386265;28;20053;-60
2023/07/01 20:44:12;;;;;;;2.35;0.90;;;;;;;18.90;64.52;99033.59;10389945;28;20049;-60
2023/07/01 20:49:14;;;;;;;1.33;1.00;;;;;;;18.84;64.84;99038.72;10386906;28;20061;-60
2023/07/01 20:54:16;;;;;;;1.45;1.13;;;;;;;18.80;64.51;99054.13;10385523;28;20085;-60
2023/07/01 20:59:18;;;;;;;1.65;1.10;;;;;;;18.81;64.60;99055.75;10386403;28;20122;-60
2023/07/01 21:04:20;;;;;;;3.70;1.10;;;;;;;18.74;64.15;99060.09;10384807;28;21039;-60
2023/07/01 21:09:22;;;;;;;1.30;0.95;;;;;;;18.71;64.23;99065.69;10383949;28;21122;-60
2023/07/01 21:14:25;;;;;;;1.00;0.90;;;;;;;18.65;64.15;99064.53;10399598;28;20156;-60
2023/07/01 21:19:27;;;;;;;1.88;1.13;;;;;;;18.58;63.78;99068.81;10388073;28;20188;-60
2023/07/01 21:24:29;;;;;;;1.52;1.00;;;;;;;18.58;63.68;99078.59;10386390;28;20080;-60
2023/07/01 21:29:31;;;;;;;1.65;1.08;;;;;;;18.41;63.46;99072.44;10385316;28;20041;-60
2023/07/01 21:34:33;;;;;;;1.88;1.20;;;;;;;18.22;63.31;99082.47;10386557;28;20379;-60
2023/07/01 21:39:35;;;;;;;1.38;1.00;;;;;;;18.02;63.21;99091.59;10387410;28;20449;-60
2023/07/01 21:44:37;;;;;;;5.22;1.38;;;;;;;17.90;63.63;99090.22;10385081;28;20693;-59
2023/07/01 21:49:39;;;;;;;1.83;1.20;;;;;;;17.77;63.31;99098.63;10381315;28;20041;-60
2023/07/01 21:54:41;;;;;;;5.05;1.20;;;;;;;17.55;63.18;99096.47;10385807;28;20408;-60
2023/07/01 21:59:43;;;;;;;1.60;1.10;;;;;;;17.27;63.54;99101.06;10385185;28;20136;-60
2023/07/01 22:04:45;;;;;;;3.35;1.20;;;;;;;17.11;63.59;99095.66;10383899;28;20045;-60
2023/07/01 22:09:48;;;;;;;2.08;1.10;;;;;;;16.95;63.61;99106.94;10380333;28;20050;-60
2023/07/01 22:14:50;;;;;;;2.33;1.20;;;;;;;16.85;63.87;99108.78;10383821;28;20052;-60
2023/07/01 22:19:52;;;;;;;3.97;1.40;;;;;;;16.81;63.68;99111.91;10382781;28;20499;-60
2023/07/01 22:24:57;;;;;;;2.13;1.20;;;;;;;16.92;63.38;99103.72;10383510;28;20049;-60
2023/07/01 22:29:59;;;;;;;1.17;1.00;;;;;;;16.81;63.32;99118.00;10384553;28;20042;-60
2023/07/01 22:35:01;;;;;;;1.77;1.00;;;;;;;16.84;63.29;99120.34;10382089;28;20049;-60
2023/07/01 22:40:03;;;;;;;1.33;1.00;;;;;;;16.82;62.84;99114.38;10384677;28;20049;-60
2023/07/01 22:45:06;;;;;;;2.90;1.25;;;;;;;16.82;62.80;99132.03;10381276;28;20425;-60
2023/07/01 22:50:20;;;;;;;2.40;1.10;;;;;;;16.63;63.73;99135.63;10382535;28;20520;-60
2023/07/01 22:55:21;;;;;;;2.67;1.20;;;;;;;16.59;63.64;99131.63;10385179;28;20048;-60
2023/07/01 23:00:23;;;;;;;1.52;1.10;;;;;;;16.62;63.31;99144.56;10383782;28;20034;-60
2023/07/01 23:05:26;;;;;;;1.88;1.15;;;;;;;16.68;63.16;99143.94;10378653;28;20057;-60
2023/07/01 23:10:28;;;;;;;3.63;1.20;;;;;;;16.70;63.56;99143.78;10378934;28;20180;-60
2023/07/01 23:15:30;;;;;;;2.10;1.30;;;;;;;16.69;63.76;99145.59;10380177;28;20046;-60
2023/07/01 23:20:32;;;;;;;2.08;1.40;;;;;;;16.76;63.42;99145.84;10380678;28;20045;-60
2023/07/01 23:25:34;;;;;;;1.75;1.10;;;;;;;16.84;63.17;99159.13;10382680;28;20543;-60
2023/07/01 23:30:39;;;;;;;2.03;1.20;;;;;;;16.96;63.32;99163.19;10380045;28;20092;-59